Time;durP1;ratioP1;P1;durP2;ratioP2;P2;SDS_P1;SDS_P2;PMS_P1;PMS_P2;Temp;Humidity;BMP_temperature;BMP_pressure;BME280_temperature;BME280_humidity;BME280_pressure;Samples;Min_cycle;Max_cycle;Signal;HPM_P1;HPM_P2
2022/03/02 00:01:29;;;;;;;;;;;4.80;99.90;;;;;;5106703;28;20294;-77
2022/03/02 00:03:56;;;;;;;;;;;4.90;99.90;;;;;;5103496;28;20366;-81
2022/03/02 00:06:22;;;;;;;;;;;4.90;99.90;;;;;;5100753;28;20292;-78
2022/03/02 00:08:49;;;;;;;;;;;4.90;99.90;;;;;;5105421;28;19924;-81
2022/03/02 00:11:16;;;;;;;;;;;4.90;99.90;;;;;;5110578;28;19927;-77
2022/03/02 00:13:42;;;;;;;;;;;4.90;99.90;;;;;;5096958;28;19932;-78
2022/03/02 00:16:09;;;;;;;;;;;4.90;99.90;;;;;;5095144;28;19924;-79
2022/03/02 00:18:35;;;;;;;;;;;4.80;99.90;;;;;;5097720;28;19927;-78
2022/03/02 00:21:02;;;;;;;;;;;4.80;99.90;;;;;;5094206;28;19924;-77
2022/03/02 00:23:29;;;;;;;;;;;4.80;99.90;;;;;;5104938;28;19924;-78
2022/03/02 00:25:55;;;;;;;;;;;4.70;99.90;;;;;;5100198;28;20268;-79
2022/03/02 00:28:22;;;;;;;;;;;4.70;99.90;;;;;;5105083;28;20387;-78
2022/03/02 00:30:49;;;;;;;;;;;4.70;99.90;;;;;;5102717;28;20379;-78
2022/03/02 00:33:15;;;;;;;;;;;4.70;99.90;;;;;;5091201;28;19971;-79
2022/03/02 00:35:42;;;;;;;;;;;4.60;99.90;;;;;;5109981;28;19923;-78
2022/03/02 00:38:10;;;;;;;;;;;4.60;99.90;;;;;;5099577;28;19928;-78
2022/03/02 00:40:37;;;;;;;;;;;4.60;99.90;;;;;;5106061;28;19932;-78
2022/03/02 00:43:04;;;;;;;;;;;4.50;99.90;;;;;;5107942;28;19932;-78
2022/03/02 00:45:31;;;;;;;;;;;4.60;99.90;;;;;;5110094;28;20019;-78
2022/03/02 00:47:58;;;;;;;;;;;4.50;99.90;;;;;;5107206;28;20362;-78
2022/03/02 00:50:24;;;;;;;;;;;4.50;99.90;;;;;;5104036;28;19924;-77
2022/03/02 00:52:51;;;;;;;;;;;4.50;99.90;;;;;;5108533;28;19928;-80
2022/03/02 00:55:17;;;;;;;;;;;4.50;99.90;;;;;;5109546;28;19931;-76
2022/03/02 00:57:44;;;;;;;;;;;4.50;99.90;;;;;;5103352;28;19924;-77
2022/03/02 01:00:11;;;;;;;;;;;4.50;99.90;;;;;;5102675;28;19931;-77
2022/03/02 01:02:37;;;;;;;;;;;4.60;99.90;;;;;;5109318;28;19923;-77
2022/03/02 01:05:04;;;;;;;;;;;4.50;99.90;;;;;;5106282;28;19931;-80
2022/03/02 01:07:30;;;;;;;;;;;4.50;99.90;;;;;;5105630;28;19924;-78
2022/03/02 01:09:57;;;;;;;;;;;4.50;99.90;;;;;;5113395;27;19931;-77
2022/03/02 01:12:24;;;;;;;;;;;4.50;99.90;;;;;;5107587;28;19923;-77
2022/03/02 01:14:50;;;;;;;;;;;4.50;99.90;;;;;;5106783;28;19931;-77
2022/03/02 01:17:17;;;;;;;;;;;4.50;99.90;;;;;;5109605;28;20347;-77
2022/03/02 01:19:43;;;;;;;;;;;4.60;99.90;;;;;;5107607;28;20259;-77
2022/03/02 01:22:10;;;;;;;;;;;4.50;99.90;;;;;;5112356;28;19930;-77
2022/03/02 01:24:36;;;;;;;;;;;4.60;99.90;;;;;;5105130;28;19936;-78
2022/03/02 01:27:03;;;;;;;;;;;4.50;99.90;;;;;;5105866;28;19924;-77
2022/03/02 01:29:30;;;;;;;;;;;4.50;99.90;;;;;;5100346;28;19931;-76
2022/03/02 01:31:57;;;;;;;;;;;4.60;99.90;;;;;;5098000;28;20336;-80
2022/03/02 01:34:23;;;;;;;;;;;4.50;99.90;;;;;;5103946;28;19923;-77
2022/03/02 01:36:50;;;;;;;;;;;4.50;99.90;;;;;;5109824;28;20422;-77
2022/03/02 01:39:16;;;;;;;;;;;4.50;99.90;;;;;;5111864;28;19949;-77
2022/03/02 01:41:43;;;;;;;;;;;4.50;99.90;;;;;;5102386;28;19924;-77
2022/03/02 01:44:09;;;;;;;;;;;4.40;99.90;;;;;;5101627;28;19923;-77
2022/03/02 01:46:36;;;;;;;;;;;4.40;99.90;;;;;;5110354;28;19928;-77
2022/03/02 01:49:03;;;;;;;;;;;4.40;99.90;;;;;;5110131;28;19930;-77
2022/03/02 01:51:30;;;;;;;;;;;4.40;99.90;;;;;;5101829;28;20321;-78
2022/03/02 01:53:56;;;;;;;;;;;4.40;99.90;;;;;;5102577;28;20375;-80
2022/03/02 01:56:23;;;;;;;;;;;4.40;99.90;;;;;;5103689;28;19924;-78
2022/03/02 01:58:49;;;;;;;;;;;4.40;99.90;;;;;;5109580;28;19946;-78
2022/03/02 02:01:16;;;;;;;;;;;4.40;99.90;;;;;;5104041;28;19986;-78
2022/03/02 02:03:42;;;;;;;;;;;4.40;99.90;;;;;;5107032;28;20276;-79
2022/03/02 02:06:09;;;;;;;;;;;4.40;99.90;;;;;;5108370;28;20359;-78
2022/03/02 02:08:35;;;;;;;;;;;4.40;99.90;;;;;;5110850;28;20290;-78
2022/03/02 02:11:02;;;;;;;;;;;4.40;99.90;;;;;;5097578;28;19924;-79
2022/03/02 02:13:30;;;;;;;;;;;4.40;99.90;;;;;;5099287;28;19989;-78
2022/03/02 02:15:56;;;;;;;;;;;4.50;99.90;;;;;;5110463;28;19980;-78
2022/03/02 02:18:23;;;;;;;;;;;4.40;99.90;;;;;;5101188;28;19924;-78
2022/03/02 02:20:50;;;;;;;;;;;4.40;99.90;;;;;;5095615;28;19924;-79
2022/03/02 02:23:16;;;;;;;;;;;4.40;99.90;;;;;;5095475;28;19928;-78
2022/03/02 02:25:43;;;;;;;;;;;4.60;99.90;;;;;;5100256;28;19924;-79
2022/03/02 02:28:10;;;;;;;;;;;4.50;99.90;;;;;;5094791;28;19924;-78
2022/03/02 02:30:36;;;;;;;;;;;4.40;99.90;;;;;;5099836;28;19934;-77
2022/03/02 02:33:03;;;;;;;;;;;4.40;99.90;;;;;;5110649;28;19924;-79
2022/03/02 02:35:29;;;;;;;;;;;4.40;99.90;;;;;;5099005;28;19924;-79
2022/03/02 02:37:56;;;;;;;;;;;4.30;99.90;;;;;;5103621;28;19932;-78
2022/03/02 02:40:22;;;;;;;;;;;4.30;99.90;;;;;;5107681;28;19928;-79
2022/03/02 02:42:49;;;;;;;;;;;4.30;99.90;;;;;;5105969;28;20010;-79
2022/03/02 02:45:17;;;;;;;;;;;4.20;99.90;;;;;;5109307;28;20395;-79
2022/03/02 02:47:43;;;;;;;;;;;4.20;99.90;;;;;;5109051;28;19928;-79
2022/03/02 02:50:10;;;;;;;;;;;4.20;99.90;;;;;;5104141;28;19928;-79
2022/03/02 02:52:36;;;;;;;;;;;4.20;99.90;;;;;;5102006;28;19928;-78
2022/03/02 02:55:03;;;;;;;;;;;4.10;99.90;;;;;;5095947;28;19923;-81
2022/03/02 02:57:30;;;;;;;;;;;4.10;99.90;;;;;;5098708;28;20006;-79
2022/03/02 02:59:56;;;;;;;;;;;4.00;99.90;;;;;;5098593;28;20394;-78
2022/03/02 03:02:23;;;;;;;;;;;4.00;99.90;;;;;;5104211;28;19920;-77
2022/03/02 03:04:49;;;;;;;;;;;4.00;99.90;;;;;;5099524;28;19957;-77
2022/03/02 03:07:16;;;;;;;;;;;4.00;99.90;;;;;;5103101;28;20417;-78
2022/03/02 03:09:42;;;;;;;;;;;3.90;99.90;;;;;;5106088;28;19924;-78
2022/03/02 03:12:09;;;;;;;;;;;3.90;99.90;;;;;;5106408;28;19923;-79
2022/03/02 03:14:35;;;;;;;;;;;3.80;99.90;;;;;;5105011;28;20276;-78
2022/03/02 03:17:02;;;;;;;;;;;3.70;99.90;;;;;;5106944;28;19956;-79
2022/03/02 03:19:29;;;;;;;;;;;3.60;99.90;;;;;;5091866;28;19928;-78
2022/03/02 03:21:55;;;;;;;;;;;3.70;99.90;;;;;;5104767;28;19984;-79
2022/03/02 03:24:22;;;;;;;;;;;3.70;99.90;;;;;;5092714;28;20106;-78
2022/03/02 03:26:48;;;;;;;;;;;3.70;99.90;;;;;;5099922;28;20271;-78
2022/03/02 03:29:15;;;;;;;;;;;3.70;99.90;;;;;;5100674;28;19977;-78
2022/03/02 03:31:41;;;;;;;;;;;3.70;99.90;;;;;;5100482;28;20378;-78
2022/03/02 03:34:08;;;;;;;;;;;3.70;99.90;;;;;;5101566;28;19927;-78
2022/03/02 03:36:34;;;;;;;;;;;3.70;99.90;;;;;;5099345;28;19924;-78
2022/03/02 03:39:01;;;;;;;;;;;3.60;99.90;;;;;;5110667;28;19977;-80
2022/03/02 03:41:27;;;;;;;;;;;3.70;99.90;;;;;;5101035;28;19931;-78
2022/03/02 03:43:54;;;;;;;;;;;3.60;99.90;;;;;;5104580;28;19924;-78
2022/03/02 03:46:21;;;;;;;;;;;3.60;99.90;;;;;;5106207;28;19924;-78
2022/03/02 03:48:47;;;;;;;;;;;3.60;99.90;;;;;;5103675;28;19950;-78
2022/03/02 03:51:14;;;;;;;;;;;3.60;99.90;;;;;;5096815;28;20363;-78
2022/03/02 03:53:40;;;;;;;;;;;3.50;99.90;;;;;;5101398;28;19935;-78
2022/03/02 03:56:07;;;;;;;;;;;3.50;99.90;;;;;;5100922;28;19928;-81
2022/03/02 03:58:33;;;;;;;;;;;3.60;99.90;;;;;;5124952;27;19924;-78
2022/03/02 04:01:00;;;;;;;;;;;3.80;99.90;;;;;;5091280;28;19931;-78
2022/03/02 04:03:26;;;;;;;;;;;3.70;99.90;;;;;;5100758;28;19928;-78
2022/03/02 04:05:53;;;;;;;;;;;3.70;99.90;;;;;;5108150;28;19931;-78
2022/03/02 04:08:20;;;;;;;;;;;3.50;99.90;;;;;;5097805;28;20264;-78
2022/03/02 04:10:46;;;;;;;;;;;3.30;99.90;;;;;;5105271;28;19928;-77
2022/03/02 04:13:13;;;;;;;;;;;3.30;99.90;;;;;;5100992;28;19924;-78
2022/03/02 04:15:40;;;;;;;;;;;3.30;99.90;;;;;;5095048;28;19973;-77
2022/03/02 04:18:07;;;;;;;;;;;3.20;99.90;;;;;;5108207;28;19927;-80
2022/03/02 04:20:33;;;;;;;;;;;3.20;99.90;;;;;;5103028;28;19931;-78
2022/03/02 04:23:00;;;;;;;;;;;3.10;99.90;;;;;;5108449;28;19924;-78
2022/03/02 04:25:26;;;;;;;;;;;3.10;99.90;;;;;;5114330;28;19941;-78
2022/03/02 04:27:53;;;;;;;;;;;3.10;99.90;;;;;;5107684;28;19947;-77
2022/03/02 04:30:20;;;;;;;;;;;3.00;99.90;;;;;;5105162;28;19950;-78
2022/03/02 04:32:46;;;;;;;;;;;3.00;99.90;;;;;;5101021;28;19928;-78
2022/03/02 04:35:13;;;;;;;;;;;3.00;99.90;;;;;;5107660;28;19931;-79
2022/03/02 04:37:39;;;;;;;;;;;3.00;99.90;;;;;;5108395;28;19931;-81
2022/03/02 04:40:06;;;;;;;;;;;3.00;99.90;;;;;;5129626;27;19924;-78
2022/03/02 04:42:32;;;;;;;;;;;3.00;99.90;;;;;;5102827;28;19924;-78
2022/03/02 04:44:59;;;;;;;;;;;3.00;99.90;;;;;;5104054;28;19924;-78
2022/03/02 04:47:26;;;;;;;;;;;3.00;99.90;;;;;;5096267;28;19924;-80
2022/03/02 04:49:52;;;;;;;;;;;3.00;99.90;;;;;;5114046;28;19971;-76
2022/03/02 04:52:19;;;;;;;;;;;3.00;99.90;;;;;;5101383;28;19928;-78
2022/03/02 04:57:30;;;;;;;;;;;2.90;99.90;;;;;;5101316;28;19928;-78
2022/03/02 04:59:56;;;;;;;;;;;2.90;99.90;;;;;;5110446;28;20007;-78
2022/03/02 05:02:23;;;;;;;;;;;2.80;99.90;;;;;;5106080;28;20363;-78
2022/03/02 05:04:50;;;;;;;;;;;2.70;99.90;;;;;;5109228;28;19959;-78
2022/03/02 05:07:16;;;;;;;;;;;2.70;99.90;;;;;;5102312;28;20321;-78
2022/03/02 05:09:43;;;;;;;;;;;2.70;99.90;;;;;;5099662;28;19928;-79
2022/03/02 05:12:10;;;;;;;;;;;2.70;99.90;;;;;;5106257;28;20997;-80
2022/03/02 05:14:36;;;;;;;;;;;2.80;99.90;;;;;;5098142;28;20007;-78
2022/03/02 05:17:03;;;;;;;;;;;2.80;99.90;;;;;;5106955;28;20005;-79
2022/03/02 05:19:29;;;;;;;;;;;2.80;99.90;;;;;;5100931;28;19931;-78
2022/03/02 05:21:56;;;;;;;;;;;2.70;99.90;;;;;;5105414;28;19923;-78
2022/03/02 05:24:23;;;;;;;;;;;2.80;99.90;;;;;;5108550;28;19931;-78
2022/03/02 05:26:49;;;;;;;;;;;2.70;99.90;;;;;;5100046;28;20018;-78
2022/03/02 05:29:16;;;;;;;;;;;2.70;99.90;;;;;;5109497;28;19924;-78
2022/03/02 05:31:42;;;;;;;;;;;2.70;99.90;;;;;;5103007;28;19931;-78
2022/03/02 05:34:09;;;;;;;;;;;2.60;99.90;;;;;;5102388;28;19924;-78
2022/03/02 05:36:35;;;;;;;;;;;2.60;99.90;;;;;;5109610;28;19928;-76
2022/03/02 05:39:02;;;;;;;;;;;2.60;99.90;;;;;;5106663;28;19931;-77
2022/03/02 05:41:28;;;;;;;;;;;2.60;99.90;;;;;;5108708;28;19927;-77
2022/03/02 05:43:55;;;;;;;;;;;2.60;99.90;;;;;;5113354;28;19931;-78
2022/03/02 05:46:21;;;;;;;;;;;2.50;99.90;;;;;;5101734;28;19924;-78
2022/03/02 05:48:49;;;;;;;;;;;2.60;99.90;;;;;;5110208;28;19938;-78
2022/03/02 05:51:16;;;;;;;;;;;2.50;99.90;;;;;;5106969;28;20038;-81
2022/03/02 05:53:42;;;;;;;;;;;2.60;99.90;;;;;;5102984;28;19965;-77
2022/03/02 05:56:09;;;;;;;;;;;2.60;99.90;;;;;;5096105;28;19931;-78
2022/03/02 05:58:35;;;;;;;;;;;2.60;99.90;;;;;;5102814;28;19932;-77
2022/03/02 06:01:02;;;;;;;;;;;2.60;99.90;;;;;;5099979;28;19924;-79
2022/03/02 06:03:28;;;;;;;;;;;2.60;99.90;;;;;;5099631;28;19928;-77
2022/03/02 06:05:55;;;;;;;;;;;2.60;99.90;;;;;;5105250;28;19938;-77
2022/03/02 06:08:22;;;;;;;;;;;2.60;99.90;;;;;;5110724;28;19923;-78
2022/03/02 06:10:48;;;;;;;;;;;2.60;99.90;;;;;;5107761;28;19990;-79
2022/03/02 06:13:15;;;;;;;;;;;2.60;99.90;;;;;;5100120;28;19924;-78
2022/03/02 06:15:41;;;;;;;;;;;2.50;99.90;;;;;;5109647;28;19923;-79
2022/03/02 06:18:08;;;;;;;;;;;2.50;99.90;;;;;;5104391;28;20015;-79
2022/03/02 06:20:34;;;;;;;;;;;2.50;99.90;;;;;;5108242;28;19930;-78
2022/03/02 06:23:02;;;;;;;;;;;2.50;99.90;;;;;;5112168;28;20379;-79
2022/03/02 06:25:28;;;;;;;;;;;2.50;99.90;;;;;;5103147;28;19927;-78
2022/03/02 06:27:55;;;;;;;;;;;2.80;99.90;;;;;;5096460;28;19939;-80
2022/03/02 06:30:21;;;;;;;;;;;2.60;99.90;;;;;;5091539;28;19924;-78
2022/03/02 06:32:48;;;;;;;;;;;2.50;99.90;;;;;;5096400;28;19928;-78
2022/03/02 06:35:15;;;;;;;;;;;2.40;99.90;;;;;;5100004;28;19931;-78
2022/03/02 06:37:41;;;;;;;;;;;2.40;99.90;;;;;;5094579;28;19928;-78
2022/03/02 06:40:08;;;;;;;;;;;2.30;99.90;;;;;;5095253;28;19934;-81
2022/03/02 06:42:34;;;;;;;;;;;2.40;99.90;;;;;;5101821;28;19935;-78
2022/03/02 06:45:01;;;;;;;;;;;2.30;99.90;;;;;;5105522;28;19924;-77
2022/03/02 06:47:27;;;;;;;;;;;2.20;99.90;;;;;;5108186;28;20382;-78
2022/03/02 06:49:54;;;;;;;;;;;2.30;99.90;;;;;;5101240;28;19924;-78
2022/03/02 06:52:20;;;;;;;;;;;2.30;99.90;;;;;;5109549;28;19923;-81
2022/03/02 06:54:47;;;;;;;;;;;2.40;99.90;;;;;;5107051;28;19927;-81
2022/03/02 06:57:13;;;;;;;;;;;2.30;99.90;;;;;;5104750;28;19927;-79
2022/03/02 06:59:40;;;;;;;;;;;2.30;99.90;;;;;;5111359;28;20079;-78
2022/03/02 07:02:07;;;;;;;;;;;2.30;99.90;;;;;;5099049;28;19947;-79
2022/03/02 07:04:33;;;;;;;;;;;2.30;99.90;;;;;;5101816;28;19997;-78
2022/03/02 07:07:00;;;;;;;;;;;2.30;99.90;;;;;;5102900;28;19930;-79
2022/03/02 07:09:26;;;;;;;;;;;2.20;99.90;;;;;;5111499;28;20363;-81
2022/03/02 07:11:53;;;;;;;;;;;2.10;99.90;;;;;;5135240;27;19924;-77
2022/03/02 07:14:19;;;;;;;;;;;2.20;99.90;;;;;;5103610;28;19930;-78
2022/03/02 07:16:46;;;;;;;;;;;2.20;99.90;;;;;;5111068;28;19972;-79
2022/03/02 07:19:13;;;;;;;;;;;2.30;99.90;;;;;;5111141;28;19928;-79
2022/03/02 07:21:39;;;;;;;;;;;2.40;99.90;;;;;;5100280;28;19932;-79
2022/03/02 07:24:06;;;;;;;;;;;2.40;99.90;;;;;;5105756;28;19924;-80
2022/03/02 07:26:32;;;;;;;;;;;2.60;99.90;;;;;;5104696;28;20404;-80
2022/03/02 07:28:59;;;;;;;;;;;2.60;99.90;;;;;;5101627;28;19934;-79
2022/03/02 07:31:26;;;;;;;;;;;2.70;99.90;;;;;;5105468;28;19931;-79
2022/03/02 07:33:52;;;;;;;;;;;2.70;99.90;;;;;;5105445;28;19946;-79
2022/03/02 07:36:19;;;;;;;;;;;2.90;99.90;;;;;;5107150;28;19978;-78
2022/03/02 07:38:46;;;;;;;;;;;3.00;99.90;;;;;;5110056;28;19936;-77
2022/03/02 07:41:12;;;;;;;;;;;3.10;99.90;;;;;;5099533;28;19938;-78
2022/03/02 07:43:39;;;;;;;;;;;3.30;99.90;;;;;;5103607;28;19927;-78
2022/03/02 07:46:05;;;;;;;;;;;3.40;99.90;;;;;;5093682;28;19931;-78
2022/03/02 07:48:32;;;;;;;;;;;3.30;99.90;;;;;;5094539;28;19974;-78
2022/03/02 07:50:59;;;;;;;;;;;3.30;99.90;;;;;;5095684;28;20306;-78
2022/03/02 07:53:25;;;;;;;;;;;3.40;99.90;;;;;;5106109;28;19924;-82
2022/03/02 07:55:52;;;;;;;;;;;3.50;99.90;;;;;;5103313;28;19924;-77
2022/03/02 07:58:18;;;;;;;;;;;3.60;99.90;;;;;;5102651;28;20319;-79
2022/03/02 08:00:45;;;;;;;;;;;3.70;99.90;;;;;;5104633;28;19923;-79
2022/03/02 08:03:12;;;;;;;;;;;3.90;99.90;;;;;;5107094;28;19923;-79
2022/03/02 08:05:39;;;;;;;;;;;4.10;99.90;;;;;;5104875;28;19928;-78
2022/03/02 08:08:05;;;;;;;;;;;4.30;99.90;;;;;;5107416;28;19924;-79
2022/03/02 08:10:32;;;;;;;;;;;4.40;99.90;;;;;;5104476;28;19924;-79
2022/03/02 08:12:58;;;;;;;;;;;4.40;99.90;;;;;;5108638;28;19932;-79
2022/03/02 08:15:26;;;;;;;;;;;4.50;99.90;;;;;;5107006;28;19923;-81
2022/03/02 08:17:52;;;;;;;;;;;4.60;99.90;;;;;;5109957;28;19987;-79
2022/03/02 08:20:19;;;;;;;;;;;4.70;99.90;;;;;;5098829;28;20376;-77
2022/03/02 08:22:48;;;;;;;;;;;4.80;99.90;;;;;;5102212;28;20097;-79
2022/03/02 08:25:14;;;;;;;;;;;4.80;99.90;;;;;;5096944;28;19931;-79
2022/03/02 08:27:41;;;;;;;;;;;4.80;99.90;;;;;;5106085;28;19924;-79
2022/03/02 08:30:07;;;;;;;;;;;4.90;99.90;;;;;;5102798;28;19931;-79
2022/03/02 08:32:34;;;;;;;;;;;4.90;99.90;;;;;;5107082;28;19923;-79
2022/03/02 08:35:01;;;;;;;;;;;4.80;99.90;;;;;;5100045;28;19966;-79
2022/03/02 08:37:27;;;;;;;;;;;4.90;99.90;;;;;;5101710;28;19927;-81
2022/03/02 08:39:54;;;;;;;;;;;4.90;99.90;;;;;;5100472;28;19924;-79
2022/03/02 08:42:20;;;;;;;;;;;5.00;99.90;;;;;;5097982;28;19970;-79
2022/03/02 08:44:47;;;;;;;;;;;5.00;99.90;;;;;;5102851;28;19935;-79
2022/03/02 08:47:14;;;;;;;;;;;5.10;99.90;;;;;;5101145;28;19935;-79
2022/03/02 08:49:40;;;;;;;;;;;5.10;99.90;;;;;;5099659;28;19923;-77
2022/03/02 08:52:07;;;;;;;;;;;5.20;99.90;;;;;;5091469;28;19924;-78
2022/03/02 08:54:34;;;;;;;;;;;5.20;99.90;;;;;;5091983;28;19994;-77
2022/03/02 08:57:00;;;;;;;;;;;5.30;99.90;;;;;;5103850;28;19923;-79
2022/03/02 08:59:27;;;;;;;;;;;5.40;99.90;;;;;;5107757;28;20287;-78
2022/03/02 09:01:53;;;;;;;;;;;5.50;99.90;;;;;;5113959;28;19977;-79
2022/03/02 09:04:20;;;;;;;;;;;5.60;99.90;;;;;;5109358;28;19924;-78
2022/03/02 09:06:47;;;;;;;;;;;5.60;99.90;;;;;;5099976;28;19983;-80
2022/03/02 09:09:13;;;;;;;;;;;5.70;99.90;;;;;;5095531;28;19947;-78
2022/03/02 09:11:41;;;;;;;;;;;5.80;99.90;;;;;;5097506;28;19924;-79
2022/03/02 09:14:08;;;;;;;;;;;5.80;99.90;;;;;;5102340;28;19924;-78
2022/03/02 09:16:34;;;;;;;;;;;5.90;99.90;;;;;;5098897;28;19924;-79
2022/03/02 09:19:01;;;;;;;;;;;6.00;99.90;;;;;;5095168;28;19924;-79
2022/03/02 09:21:27;;;;;;;;;;;6.10;99.90;;;;;;5097010;28;20290;-78
2022/03/02 09:23:54;;;;;;;;;;;6.20;99.90;;;;;;5093561;28;19928;-78
2022/03/02 09:26:20;;;;;;;;;;;6.40;99.90;;;;;;5099321;28;19931;-82
2022/03/02 09:28:47;;;;;;;;;;;6.40;99.90;;;;;;5093008;28;20021;-78
2022/03/02 09:31:14;;;;;;;;;;;6.40;99.90;;;;;;5092857;28;19932;-78
2022/03/02 09:33:41;;;;;;;;;;;6.40;99.90;;;;;;5096361;28;19924;-79
2022/03/02 09:36:07;;;;;;;;;;;6.50;99.90;;;;;;5095185;28;19947;-78
2022/03/02 09:38:34;;;;;;;;;;;6.50;99.90;;;;;;5093232;28;20382;-81
2022/03/02 09:41:00;;;;;;;;;;;6.60;99.90;;;;;;5098451;28;19970;-79
2022/03/02 09:43:27;;;;;;;;;;;6.70;99.90;;;;;;5094238;28;19947;-78
2022/03/02 09:45:53;;;;;;;;;;;6.70;99.90;;;;;;5094011;28;20090;-79
2022/03/02 09:48:20;;;;;;;;;;;6.90;99.90;;;;;;5094025;28;19930;-79
2022/03/02 09:50:46;;;;;;;;;;;6.90;99.90;;;;;;5094414;28;19931;-78
2022/03/02 09:53:13;;;;;;;;;;;6.90;99.90;;;;;;5094793;28;19924;-78
2022/03/02 09:55:40;;;;;;;;;;;7.00;99.90;;;;;;5093432;28;19928;-78
2022/03/02 09:58:07;;;;;;;;;;;6.90;99.90;;;;;;5095391;28;19924;-78
2022/03/02 10:00:35;;;;;;;;;;;7.00;99.90;;;;;;5092353;28;19924;-82
2022/03/02 10:03:01;;;;;;;;;;;7.10;99.90;;;;;;5101684;28;19967;-79
2022/03/02 10:05:28;;;;;;;;;;;7.10;99.90;;;;;;5096691;28;20287;-79
2022/03/02 10:07:54;;;;;;;;;;;7.30;99.90;;;;;;5094177;28;20542;-79
2022/03/02 10:10:23;;;;;;;;;;;7.40;99.90;;;;;;5096795;28;20378;-79
2022/03/02 10:12:49;;;;;;;;;;;7.40;99.90;;;;;;5097687;28;19927;-79
2022/03/02 10:15:16;;;;;;;;;;;7.30;99.90;;;;;;5097937;28;20403;-79
2022/03/02 10:17:42;;;;;;;;;;;7.40;99.90;;;;;;5094904;28;19930;-79
2022/03/02 10:20:09;;;;;;;;;;;7.50;99.90;;;;;;5101655;28;20379;-79
2022/03/02 10:22:35;;;;;;;;;;;7.50;99.90;;;;;;5096640;28;20397;-84
2022/03/02 10:25:02;;;;;;;;;;;7.60;99.90;;;;;;5096109;28;20282;-79
2022/03/02 10:27:28;;;;;;;;;;;7.80;99.90;;;;;;5099799;28;19924;-80
2022/03/02 10:29:56;;;;;;;;;;;7.80;99.90;;;;;;5096219;28;19935;-80
2022/03/02 10:32:22;;;;;;;;;;;7.80;99.90;;;;;;5106499;28;19924;-80
2022/03/02 10:34:49;;;;;;;;;;;7.80;99.90;;;;;;5095454;28;19924;-80
2022/03/02 10:37:15;;;;;;;;;;;7.90;99.90;;;;;;5094211;28;19924;-80
2022/03/02 10:39:42;;;;;;;;;;;7.90;99.90;;;;;;5093571;28;19924;-79
2022/03/02 10:42:08;;;;;;;;;;;7.90;99.90;;;;;;5097440;28;19928;-80
2022/03/02 10:44:35;;;;;;;;;;;8.10;99.90;;;;;;5094198;28;19931;-81
2022/03/02 10:47:01;;;;;;;;;;;8.30;99.90;;;;;;5098272;28;19924;-80
2022/03/02 10:49:28;;;;;;;;;;;8.30;99.90;;;;;;5095374;28;19924;-80
2022/03/02 10:51:55;;;;;;;;;;;8.30;99.90;;;;;;5101831;28;19932;-80
2022/03/02 10:54:21;;;;;;;;;;;8.30;99.90;;;;;;5097566;28;20395;-80
2022/03/02 10:56:48;;;;;;;;;;;8.40;99.90;;;;;;5099398;28;20317;-80
2022/03/02 10:59:16;;;;;;;;;;;8.50;99.90;;;;;;5098544;28;20024;-80
2022/03/02 11:01:43;;;;;;;;;;;8.60;99.90;;;;;;5095817;28;20359;-80
2022/03/02 11:04:09;;;;;;;;;;;8.60;99.90;;;;;;5098185;28;20377;-80
2022/03/02 11:06:36;;;;;;;;;;;8.70;99.90;;;;;;5092878;28;20306;-80
2022/03/02 11:09:02;;;;;;;;;;;8.70;99.90;;;;;;5093363;28;19964;-85
2022/03/02 11:11:29;;;;;;;;;;;8.80;99.90;;;;;;5101617;28;19928;-88
2022/03/02 11:13:56;;;;;;;;;;;8.80;99.90;;;;;;5101885;28;19924;-89
2022/03/02 11:16:22;;;;;;;;;;;8.80;99.90;;;;;;5100446;28;19924;-80
2022/03/02 11:18:51;;;;;;;;;;;8.90;99.90;;;;;;5106267;28;19928;-78
2022/03/02 11:21:20;;;;;;;;;;;8.80;99.90;;;;;;5110295;28;19924;-80
2022/03/02 11:23:47;;;;;;;;;;;8.90;99.90;;;;;;5094536;28;19937;-80
2022/03/02 11:26:14;;;;;;;;;;;8.90;99.90;;;;;;5099406;28;19923;-80
2022/03/02 11:28:40;;;;;;;;;;;8.90;99.90;;;;;;5094387;28;20464;-84
2022/03/02 11:31:07;;;;;;;;;;;8.90;99.90;;;;;;5094398;28;20002;-79
2022/03/02 11:33:34;;;;;;;;;;;9.00;99.90;;;;;;5095633;28;19924;-80
2022/03/02 11:36:00;;;;;;;;;;;8.90;99.90;;;;;;5093218;28;19924;-82
2022/03/02 11:38:27;;;;;;;;;;;9.10;99.90;;;;;;5096764;28;19930;-80
2022/03/02 11:40:53;;;;;;;;;;;9.10;99.90;;;;;;5091985;28;20371;-83
2022/03/02 11:43:20;;;;;;;;;;;9.10;99.90;;;;;;5101383;28;19923;-80
2022/03/02 11:45:47;;;;;;;;;;;9.20;99.90;;;;;;5099994;28;20367;-81
2022/03/02 11:48:15;;;;;;;;;;;9.00;99.90;;;;;;5109742;28;19924;-82
2022/03/02 11:50:42;;;;;;;;;;;9.20;99.90;;;;;;5106837;28;19931;-84
2022/03/02 11:53:09;;;;;;;;;;;9.20;99.90;;;;;;5105635;28;20425;-82
2022/03/02 11:55:35;;;;;;;;;;;9.30;99.90;;;;;;5105947;28;19928;-81
2022/03/02 11:58:02;;;;;;;;;;;9.30;99.90;;;;;;5101186;28;19928;-81
2022/03/02 12:00:28;;;;;;;;;;;9.20;99.90;;;;;;5103605;28;20309;-80
2022/03/02 12:02:56;;;;;;;;;;;9.30;99.90;;;;;;5098917;28;19923;-83
2022/03/02 12:05:23;;;;;;;;;;;9.30;99.90;;;;;;5111066;28;20302;-81
2022/03/02 12:07:49;;;;;;;;;;;9.30;99.90;;;;;;5098771;28;19928;-81
2022/03/02 12:10:16;;;;;;;;;;;9.30;99.90;;;;;;5109428;28;19923;-80
2022/03/02 12:12:42;;;;;;;;;;;9.30;99.90;;;;;;5107251;28;19930;-84
2022/03/02 12:15:09;;;;;;;;;;;9.40;99.50;;;;;;5093703;28;20291;-82
2022/03/02 12:17:36;;;;;;;;;;;9.30;99.90;;;;;;5103756;28;19923;-81
2022/03/02 12:20:02;;;;;;;;;;;9.30;99.70;;;;;;5096338;28;19977;-83
2022/03/02 12:22:29;;;;;;;;;;;9.20;99.80;;;;;;5104005;28;19924;-81
2022/03/02 12:24:57;;;;;;;;;;;9.20;99.90;;;;;;5093108;28;20286;-81
2022/03/02 12:27:24;;;;;;;;;;;9.30;99.90;;;;;;5102658;28;19924;-81
2022/03/02 12:29:50;;;;;;;;;;;9.30;99.90;;;;;;5102956;28;19959;-79
2022/03/02 12:32:17;;;;;;;;;;;9.20;99.40;;;;;;5105081;28;19935;-83
2022/03/02 12:34:43;;;;;;;;;;;9.20;99.20;;;;;;5103460;28;19923;-84
2022/03/02 12:37:10;;;;;;;;;;;9.10;98.60;;;;;;5112683;28;19924;-81
2022/03/02 12:39:37;;;;;;;;;;;9.30;99.70;;;;;;5103091;28;19930;-81
2022/03/02 12:42:07;;;;;;;;;;;9.20;97.90;;;;;;5110802;28;19924;-81
2022/03/02 12:44:35;;;;;;;;;;;9.30;98.20;;;;;;5109189;28;20354;-81
2022/03/02 12:47:02;;;;;;;;;;;9.30;97.90;;;;;;5113214;28;20405;-84
2022/03/02 12:49:29;;;;;;;;;;;9.20;97.40;;;;;;5106733;28;19971;-81
2022/03/02 12:51:56;;;;;;;;;;;9.30;99.10;;;;;;5101388;28;19924;-81
2022/03/02 12:54:22;;;;;;;;;;;9.30;98.60;;;;;;5112289;28;19935;-81
2022/03/02 12:56:49;;;;;;;;;;;9.40;99.40;;;;;;5096300;28;19924;-82
2022/03/02 12:59:16;;;;;;;;;;;9.40;99.80;;;;;;5095785;28;19928;-81
2022/03/02 13:01:42;;;;;;;;;;;9.50;99.10;;;;;;5101882;28;20010;-82
2022/03/02 13:04:11;;;;;;;;;;;9.40;98.40;;;;;;5094348;28;19928;-82
2022/03/02 13:06:38;;;;;;;;;;;9.50;98.20;;;;;;5102482;28;19931;-82
2022/03/02 13:09:05;;;;;;;;;;;9.50;98.50;;;;;;5093783;28;19924;-82
2022/03/02 13:11:32;;;;;;;;;;;9.50;98.10;;;;;;5093260;28;19928;-82
2022/03/02 13:13:58;;;;;;;;;;;9.40;98.70;;;;;;5092956;28;19927;-82
2022/03/02 13:16:25;;;;;;;;;;;9.40;98.30;;;;;;5097932;28;19953;-82
2022/03/02 13:18:51;;;;;;;;;;;9.50;98.40;;;;;;5094918;28;19924;-82
2022/03/02 13:21:18;;;;;;;;;;;9.50;97.80;;;;;;5107917;28;19946;-81
2022/03/02 13:23:44;;;;;;;;;;;9.40;98.00;;;;;;5094734;28;19924;-82
2022/03/02 13:26:11;;;;;;;;;;;9.40;98.90;;;;;;5103137;28;19951;-82
2022/03/02 13:28:37;;;;;;;;;;;9.50;98.80;;;;;;5097375;28;19927;-82
2022/03/02 13:31:04;;;;;;;;;;;9.50;97.60;;;;;;5089379;28;19968;-82
2022/03/02 13:33:30;;;;;;;;;;;9.50;98.00;;;;;;5089312;28;19924;-83
2022/03/02 13:35:59;;;;;;;;;;;9.50;97.10;;;;;;5096288;28;19932;-82
2022/03/02 13:38:25;;;;;;;;;;;9.60;98.10;;;;;;5096654;28;20377;-82
2022/03/02 13:40:52;;;;;;;;;;;9.50;98.10;;;;;;5096730;28;19932;-83
2022/03/02 13:43:19;;;;;;;;;;;9.60;98.90;;;;;;5092815;28;19928;-86
2022/03/02 13:45:45;;;;;;;;;;;9.60;98.50;;;;;;5097837;28;20720;-82
2022/03/02 13:48:12;;;;;;;;;;;9.60;98.30;;;;;;5098816;28;20465;-82
2022/03/02 13:50:38;;;;;;;;;;;9.60;98.70;;;;;;5095840;28;19924;-82
2022/03/02 13:53:05;;;;;;;;;;;9.60;98.80;;;;;;5098224;28;19931;-81
2022/03/02 13:55:31;;;;;;;;;;;9.70;98.20;;;;;;5101721;28;19932;-82
2022/03/02 13:57:58;;;;;;;;;;;9.60;97.50;;;;;;5091203;28;20740;-82
2022/03/02 14:00:25;;;;;;;;;;;9.50;97.10;;;;;;5096142;28;20371;-82
2022/03/02 14:02:52;;;;;;;;;;;9.60;97.10;;;;;;5096744;28;19928;-84
2022/03/02 14:05:19;;;;;;;;;;;9.60;97.40;;;;;;5102064;28;20011;-82
2022/03/02 14:07:45;;;;;;;;;;;9.60;97.10;;;;;;5103218;28;19950;-82
2022/03/02 14:10:12;;;;;;;;;;;9.60;97.50;;;;;;5096835;28;19951;-82
2022/03/02 14:12:38;;;;;;;;;;;9.60;97.00;;;;;;5106323;28;19924;-84
2022/03/02 14:15:05;;;;;;;;;;;9.50;97.00;;;;;;5102113;28;19924;-81
2022/03/02 14:17:32;;;;;;;;;;;9.60;97.10;;;;;;5111335;28;20306;-82
2022/03/02 14:19:59;;;;;;;;;;;9.50;95.90;;;;;;5105177;28;20285;-82
2022/03/02 14:22:25;;;;;;;;;;;9.50;97.30;;;;;;5101022;28;19924;-83
2022/03/02 14:24:52;;;;;;;;;;;9.40;97.30;;;;;;5097328;28;19923;-83
2022/03/02 14:27:18;;;;;;;;;;;9.50;96.80;;;;;;5095289;28;20295;-81
2022/03/02 14:29:45;;;;;;;;;;;9.50;97.40;;;;;;5094819;28;19932;-87